createdAt,value
2018-08-19T00:02:16.689Z,100.00
2018-08-19T00:04:59.321Z,100.00
2018-08-19T00:07:28.529Z,100.00
2018-08-19T00:09:57.957Z,100.00
2018-08-19T00:12:47.396Z,100.00
2018-08-19T00:15:16.097Z,100.00
2018-08-19T00:17:46.628Z,100.00
2018-08-19T00:20:15.778Z,100.00
2018-08-19T00:22:46.146Z,100.00
2018-08-19T00:25:25.848Z,100.00
2018-08-19T00:27:55.462Z,100.00
2018-08-19T00:30:23.838Z,100.00
2018-08-19T00:32:52.252Z,100.00
2018-08-19T00:35:20.797Z,100.00
2018-08-19T00:37:50.032Z,100.00
2018-08-19T00:40:19.349Z,100.00
2018-08-19T00:42:48.704Z,100.00
2018-08-19T00:45:18.241Z,100.00
2018-08-19T00:47:48.381Z,100.00
2018-08-19T00:50:17.612Z,100.00
2018-08-19T00:52:46.784Z,100.00
2018-08-19T00:55:16.465Z,100.00
2018-08-19T00:57:50.802Z,100.00
2018-08-19T01:00:19.162Z,100.00
2018-08-19T01:02:48.533Z,100.00
2018-08-19T01:05:17.908Z,100.00
2018-08-19T01:07:47.165Z,100.00
2018-08-19T01:10:16.649Z,100.00
2018-08-19T01:12:46.044Z,100.00
2018-08-19T01:15:17.037Z,100.00
2018-08-19T01:17:46.576Z,100.00
2018-08-19T01:20:19.888Z,100.00
2018-08-19T01:22:49.504Z,100.00
2018-08-19T01:25:18.142Z,100.00
2018-08-19T01:27:46.679Z,100.00
2018-08-19T01:30:19.155Z,100.00
2018-08-19T01:32:47.766Z,100.00
2018-08-19T01:35:16.276Z,100.00
2018-08-19T01:37:45.140Z,100.00
2018-08-19T01:40:17.642Z,100.00
2018-08-19T01:42:48.849Z,100.00
2018-08-19T01:45:17.700Z,100.00
2018-08-19T01:47:46.288Z,100.00
2018-08-19T01:50:17.410Z,100.00
2018-08-19T01:52:48.304Z,100.00
2018-08-19T01:55:17.945Z,100.00
2018-08-19T01:57:47.423Z,100.00
2018-08-19T02:00:16.481Z,100.00
2018-08-19T02:03:08.964Z,100.00
2018-08-19T02:05:38.200Z,100.00
2018-08-19T02:08:06.569Z,100.00
2018-08-19T02:10:36.054Z,100.00
2018-08-19T02:13:04.419Z,100.00
2018-08-19T02:15:33.897Z,100.00
2018-08-19T02:18:05.592Z,100.00
2018-08-19T02:20:37.627Z,100.00
2018-08-19T02:23:07.549Z,100.00
2018-08-19T02:25:38.985Z,100.00
2018-08-19T02:28:08.440Z,100.00
2018-08-19T02:30:51.178Z,100.00
2018-08-19T02:33:21.397Z,100.00
2018-08-19T02:36:23.813Z,100.00
2018-08-19T02:38:52.158Z,100.00
2018-08-19T02:41:20.634Z,100.00
2018-08-19T02:43:54.301Z,100.00
2018-08-19T02:46:22.713Z,100.00
2018-08-19T02:48:51.480Z,100.00
2018-08-19T02:51:20.904Z,100.00
2018-08-19T02:53:50.305Z,100.00
2018-08-19T02:56:20.481Z,100.00
2018-08-19T02:58:49.581Z,100.00
2018-08-19T03:01:18.612Z,100.00
2018-08-19T03:03:46.966Z,100.00
2018-08-19T03:06:16.232Z,100.00
2018-08-19T03:08:50.931Z,100.00
2018-08-19T03:11:21.681Z,100.00
2018-08-19T03:13:50.944Z,100.00
2018-08-19T03:16:20.185Z,100.00
2018-08-19T03:18:50.201Z,100.00
2018-08-19T03:21:20.313Z,100.00
2018-08-19T03:23:51.994Z,100.00
2018-08-19T03:26:21.320Z,100.00
2018-08-19T03:28:50.544Z,100.00
2018-08-19T03:31:19.876Z,100.00
2018-08-19T03:33:48.217Z,100.00
2018-08-19T03:36:17.845Z,100.00
2018-08-19T03:38:46.281Z,100.00
2018-08-19T03:41:15.810Z,100.00
2018-08-19T03:43:53.231Z,100.00
2018-08-19T03:46:22.670Z,100.00
2018-08-19T03:48:52.040Z,100.00
2018-08-19T03:51:21.386Z,100.00
2018-08-19T03:53:49.832Z,100.00
2018-08-19T03:56:23.437Z,100.00
2018-08-19T03:58:57.507Z,100.00
2018-08-19T04:01:38.605Z,100.00
2018-08-19T04:04:06.990Z,100.00
2018-08-19T04:06:36.165Z,100.00
2018-08-19T04:09:06.469Z,100.00
2018-08-19T04:11:34.888Z,100.00
2018-08-19T04:14:08.685Z,100.00
2018-08-19T04:16:37.573Z,100.00
2018-08-19T04:19:10.804Z,100.00
2018-08-19T04:21:40.891Z,100.00
2018-08-19T04:24:13.339Z,100.00
2018-08-19T04:26:43.651Z,100.00
2018-08-19T04:29:17.123Z,100.00
2018-08-19T04:31:48.716Z,100.00
2018-08-19T04:34:19.425Z,100.00
2018-08-19T04:36:50.939Z,100.00
2018-08-19T04:39:20.460Z,100.00
2018-08-19T04:41:49.691Z,100.00
2018-08-19T04:44:18.925Z,100.00
2018-08-19T04:46:48.280Z,100.00
2018-08-19T04:49:17.632Z,100.00
2018-08-19T04:51:46.057Z,100.00
2018-08-19T04:54:15.661Z,100.00
2018-08-19T04:56:45.261Z,100.00
2018-08-19T04:59:14.310Z,100.00
2018-08-19T05:01:45.009Z,100.00
2018-08-19T05:04:15.473Z,100.00
2018-08-19T05:06:46.645Z,100.00
2018-08-19T05:09:16.709Z,100.00
2018-08-19T05:11:46.414Z,100.00
2018-08-19T05:14:16.229Z,100.00
2018-08-19T05:16:45.615Z,100.00
2018-08-19T05:19:16.127Z,100.00
2018-08-19T05:21:45.121Z,100.00
2018-08-19T05:24:14.860Z,100.00
2018-08-19T05:26:45.761Z,100.00
2018-08-19T05:29:14.740Z,100.00
2018-08-19T05:31:54.748Z,100.00
2018-08-19T05:34:29.545Z,100.00
2018-08-19T05:36:59.115Z,100.00
2018-08-19T05:39:27.627Z,100.00
2018-08-19T05:42:04.453Z,99.13
2018-08-19T05:44:38.117Z,95.57
2018-08-19T05:47:09.181Z,93.67
2018-08-19T05:49:39.624Z,94.22
2018-08-19T05:52:15.128Z,95.04
2018-08-19T05:54:58.109Z,94.03
2018-08-19T05:57:26.537Z,90.65
2018-08-19T05:59:55.888Z,88.96
2018-08-19T06:02:30.278Z,89.43
2018-08-19T06:05:00.534Z,91.34
2018-08-19T06:07:29.077Z,91.44
2018-08-19T06:09:57.528Z,89.77
2018-08-19T06:12:25.893Z,88.88
2018-08-19T06:14:54.249Z,90.09
2018-08-19T06:17:23.666Z,87.81
2018-08-19T06:19:52.926Z,86.78
2018-08-19T06:22:24.393Z,89.12
2018-08-19T06:24:52.760Z,87.40
2018-08-19T06:27:21.162Z,86.56
2018-08-19T06:29:51.561Z,86.04
2018-08-19T06:32:25.360Z,87.18
2018-08-19T06:34:54.828Z,86.25
2018-08-19T06:37:23.205Z,83.58
2018-08-19T06:39:52.465Z,79.23
2018-08-19T06:42:21.961Z,78.23
2018-08-19T06:44:51.341Z,79.23
2018-08-19T06:47:19.760Z,75.30
2018-08-19T06:49:54.340Z,73.83
2018-08-19T06:52:24.595Z,72.43
2018-08-19T06:54:54.040Z,75.24
2018-08-19T06:57:23.476Z,72.66
2018-08-19T06:59:51.800Z,72.50
2018-08-19T07:02:22.192Z,71.64
2018-08-19T07:04:50.751Z,70.14
2018-08-19T07:07:19.936Z,68.80
2018-08-19T07:09:48.786Z,70.92
2018-08-19T07:12:19.913Z,70.64
2018-08-19T07:14:48.532Z,67.53
2018-08-19T07:17:18.637Z,68.55
2018-08-19T07:19:47.953Z,70.14
2018-08-19T07:22:18.549Z,67.99
2018-08-19T07:24:47.801Z,70.34
2018-08-19T07:27:16.647Z,68.66
2018-08-19T07:29:47.342Z,67.89
2018-08-19T07:32:16.621Z,65.23
2018-08-19T07:34:46.998Z,66.56
2018-08-19T07:37:16.836Z,64.80
2018-08-19T07:39:50.953Z,62.22
2018-08-19T07:42:20.290Z,59.08
2018-08-19T07:44:48.795Z,60.43
2018-08-19T07:47:17.123Z,57.94
2018-08-19T07:49:46.368Z,59.05
2018-08-19T07:52:15.716Z,61.43
2018-08-19T07:54:46.360Z,59.90
2018-08-19T07:57:25.564Z,59.40
2018-08-19T07:59:53.922Z,58.14
2018-08-19T08:02:26.432Z,55.44
2018-08-19T08:04:54.895Z,53.84
2018-08-19T08:07:23.251Z,53.14
2018-08-19T08:09:51.675Z,50.28
2018-08-19T08:12:21.021Z,50.64
2018-08-19T08:14:52.181Z,48.51
2018-08-19T08:17:21.281Z,52.87
2018-08-19T08:19:55.053Z,52.32
2018-08-19T08:22:24.715Z,52.46
2018-08-19T08:24:53.263Z,50.70
2018-08-19T08:27:22.397Z,48.70
2018-08-19T08:29:50.725Z,46.20
2018-08-19T08:32:19.101Z,44.56
2018-08-19T08:34:48.300Z,46.40
2018-08-19T08:37:16.751Z,48.58
2018-08-19T08:39:45.657Z,49.57
2018-08-19T08:42:15.049Z,48.11
2018-08-19T08:44:44.807Z,48.93
2018-08-19T08:47:14.936Z,48.92
2018-08-19T08:49:46.920Z,45.30
2018-08-19T08:52:21.191Z,47.25
2018-08-19T08:54:52.474Z,46.53
2018-08-19T08:57:22.521Z,45.14
2018-08-19T08:59:52.572Z,43.64
2018-08-19T09:02:21.913Z,38.72
2018-08-19T09:04:52.261Z,41.74
2018-08-19T09:07:21.695Z,47.66
2018-08-19T09:09:51.310Z,41.66
2018-08-19T09:12:30.942Z,43.28
2018-08-19T09:14:59.312Z,40.05
2018-08-19T09:17:27.735Z,37.77
2018-08-19T09:19:57.230Z,38.72
2018-08-19T09:22:25.621Z,40.56
2018-08-19T09:24:54.869Z,36.65
2018-08-19T09:27:24.357Z,37.61
2018-08-19T09:29:52.690Z,39.02
2018-08-19T09:32:21.943Z,42.20
2018-08-19T09:34:50.445Z,40.86
2018-08-19T09:37:19.749Z,42.23
2018-08-19T09:39:48.078Z,41.68
2018-08-19T09:42:16.560Z,43.05
2018-08-19T09:44:45.721Z,40.22
2018-08-19T09:47:15.481Z,41.45
2018-08-19T09:49:45.017Z,43.58
2018-08-19T09:52:15.637Z,43.59
2018-08-19T09:54:44.997Z,42.99
2018-08-19T09:57:15.244Z,40.91
2018-08-19T09:59:45.389Z,40.61
2018-08-19T10:02:15.736Z,43.94
2018-08-19T10:04:44.805Z,45.29
2018-08-19T10:07:14.970Z,41.44
2018-08-19T10:09:44.106Z,42.99
2018-08-19T10:12:15.893Z,42.42
2018-08-19T10:14:46.721Z,41.84
2018-08-19T10:17:16.458Z,42.65
2018-08-19T10:19:45.812Z,43.07
2018-08-19T10:22:16.233Z,42.62
2018-08-19T10:24:45.585Z,40.09
2018-08-19T10:27:15.825Z,41.06
2018-08-19T10:29:46.521Z,44.10
2018-08-19T10:32:15.943Z,47.11
2018-08-19T10:34:44.909Z,45.54
2018-08-19T10:37:13.817Z,44.19
2018-08-19T10:39:43.745Z,41.08
2018-08-19T10:42:20.287Z,39.63
2018-08-19T10:44:50.476Z,42.27
2018-08-19T10:47:19.756Z,43.15
2018-08-19T10:49:57.493Z,41.66
2018-08-19T10:52:31.373Z,43.29
2018-08-19T10:55:01.133Z,43.68
2018-08-19T10:57:30.537Z,43.39
2018-08-19T10:59:59.603Z,41.67
2018-08-19T11:02:28.037Z,43.52
2018-08-19T11:04:58.349Z,44.39
2018-08-19T11:07:26.705Z,43.53
2018-08-19T11:10:13.439Z,42.17
2018-08-19T11:12:41.844Z,40.39
2018-08-19T11:15:26.180Z,41.39
2018-08-19T11:17:54.569Z,41.40
2018-08-19T11:20:29.375Z,42.00
2018-08-19T11:23:00.629Z,41.17
2018-08-19T11:25:29.827Z,40.49
2018-08-19T11:27:58.209Z,42.85
2018-08-19T11:30:26.609Z,41.60
2018-08-19T11:32:54.961Z,40.96
2018-08-19T11:35:27.267Z,40.18
2018-08-19T11:37:55.638Z,41.43
2018-08-19T11:40:24.029Z,40.83
2018-08-19T11:42:52.521Z,39.76
2018-08-19T11:45:20.878Z,41.24
2018-08-19T11:47:53.397Z,40.34
2018-08-19T11:50:21.842Z,40.19
2018-08-19T11:52:54.721Z,41.95
2018-08-19T11:55:23.105Z,39.15
2018-08-19T11:57:51.461Z,38.42
2018-08-19T12:00:20.034Z,38.46
2018-08-19T12:02:48.357Z,37.53
2018-08-19T12:05:17.214Z,38.11
2018-08-19T12:07:48.616Z,39.30
2018-08-19T12:10:16.974Z,39.62
2018-08-19T12:12:48.682Z,41.03
2018-08-19T12:15:17.241Z,37.04
2018-08-19T12:17:45.581Z,37.21
2018-08-19T12:20:16.645Z,37.05
2018-08-19T12:22:46.702Z,36.62
2018-08-19T12:25:15.957Z,35.54
2018-08-19T12:27:45.038Z,35.48
2018-08-19T12:30:14.716Z,38.30
2018-08-19T12:32:43.977Z,37.99
2018-08-19T12:35:12.726Z,38.14
2018-08-19T12:37:41.114Z,38.05
2018-08-19T12:40:09.432Z,38.43
2018-08-19T12:42:43.773Z,37.43
2018-08-19T12:45:13.933Z,35.18
2018-08-19T12:47:42.869Z,35.48
2018-08-19T12:50:15.985Z,36.99
2018-08-19T12:52:45.477Z,35.62
2018-08-19T12:55:16.503Z,37.02
2018-08-19T12:57:46.234Z,37.67
2018-08-19T13:00:26.138Z,35.08
2018-08-19T13:02:54.820Z,36.09
2018-08-19T13:05:23.541Z,37.48
2018-08-19T13:07:51.971Z,40.21
2018-08-19T13:10:20.604Z,38.07
2018-08-19T13:12:54.024Z,35.46
2018-08-19T13:15:23.293Z,35.37
2018-08-19T13:17:51.796Z,35.20
2018-08-19T13:20:20.149Z,35.30
2018-08-19T13:22:53.937Z,34.84
2018-08-19T13:25:23.367Z,34.44
2018-08-19T13:27:51.706Z,35.89
2018-08-19T13:30:20.816Z,39.58
2018-08-19T13:32:49.701Z,36.62
2018-08-19T13:35:18.521Z,37.04
2018-08-19T13:37:46.893Z,35.50
2018-08-19T13:40:16.494Z,34.91
2018-08-19T13:42:45.748Z,34.20
2018-08-19T13:45:21.350Z,34.22
2018-08-19T13:47:51.113Z,36.71
2018-08-19T13:50:19.477Z,34.50
2018-08-19T13:52:47.905Z,34.33
2018-08-19T13:55:17.858Z,34.17
2018-08-19T13:57:46.504Z,37.56
2018-08-19T14:00:23.185Z,33.48
2018-08-19T14:02:51.904Z,32.42
2018-08-19T14:05:20.245Z,37.02
2018-08-19T14:07:48.590Z,34.90
2018-08-19T14:10:17.401Z,33.46
2018-08-19T14:12:45.793Z,33.49
2018-08-19T14:15:15.343Z,36.33
2018-08-19T14:17:44.724Z,35.40
2018-08-19T14:20:13.992Z,35.08
2018-08-19T14:22:42.944Z,34.91
2018-08-19T14:25:14.221Z,33.43
2018-08-19T14:27:42.552Z,35.36
2018-08-19T14:30:12.001Z,34.08
2018-08-19T14:32:44.293Z,34.50
2018-08-19T14:35:13.556Z,33.42
2018-08-19T14:37:42.855Z,32.84
2018-08-19T14:40:15.372Z,35.08
2018-08-19T14:42:44.709Z,36.70
2018-08-19T14:45:15.440Z,32.27
2018-08-19T14:47:45.874Z,38.50
2018-08-19T14:50:18.502Z,32.64
2018-08-19T14:52:47.752Z,33.03
2018-08-19T14:55:16.187Z,32.20
2018-08-19T14:57:46.184Z,32.34
2018-08-19T15:00:16.825Z,31.21
2018-08-19T15:02:46.108Z,33.50
2018-08-19T15:05:18.355Z,31.61
2018-08-19T15:07:48.025Z,31.75
2018-08-19T15:10:23.325Z,36.05
2018-08-19T15:12:52.324Z,33.53
2018-08-19T15:15:20.888Z,32.08
2018-08-19T15:17:54.639Z,31.84
2018-08-19T15:20:28.852Z,30.36
2018-08-19T15:23:09.578Z,29.03
2018-08-19T15:25:39.025Z,30.49
2018-08-19T15:28:08.265Z,33.50
2018-08-19T15:30:39.345Z,31.37
2018-08-19T15:33:09.766Z,31.86
2018-08-19T15:35:39.917Z,29.50
2018-08-19T15:38:10.334Z,27.02
2018-08-19T15:40:41.697Z,31.64
2018-08-19T15:43:13.014Z,26.51
2018-08-19T15:45:44.805Z,26.29
2018-08-19T15:48:16.013Z,30.38
2018-08-19T15:50:46.973Z,26.91
2018-08-19T15:53:18.831Z,27.27
2018-08-19T15:55:48.220Z,26.02
2018-08-19T15:58:17.581Z,26.69
2018-08-19T16:00:46.788Z,26.76
2018-08-19T16:03:16.641Z,27.34
2018-08-19T16:05:45.878Z,28.51
2018-08-19T16:08:16.769Z,30.73
2018-08-19T16:10:46.018Z,29.27
2018-08-19T16:13:16.925Z,30.31
2018-08-19T16:15:47.041Z,33.23
2018-08-19T16:18:16.340Z,36.39
2018-08-19T16:20:49.858Z,33.50
2018-08-19T16:23:19.217Z,31.00
2018-08-19T16:25:48.581Z,32.46
2018-08-19T16:28:18.330Z,33.07
2018-08-19T16:30:47.553Z,32.35
2018-08-19T16:33:16.332Z,31.72
2018-08-19T16:35:44.991Z,31.57
2018-08-19T16:38:14.057Z,32.01
2018-08-19T16:40:43.593Z,32.25
2018-08-19T16:43:11.993Z,33.63
2018-08-19T16:45:40.354Z,35.72
2018-08-19T16:48:08.708Z,36.17
2018-08-19T16:50:37.193Z,35.68
2018-08-19T16:53:05.486Z,34.94
2018-08-19T16:55:34.001Z,35.26
2018-08-19T16:58:02.325Z,33.75
2018-08-19T17:00:30.713Z,36.77
2018-08-19T17:02:59.223Z,34.78
2018-08-19T17:05:32.390Z,34.71
2018-08-19T17:08:00.841Z,34.80
2018-08-19T17:10:30.342Z,36.19
2018-08-19T17:12:59.148Z,36.98
2018-08-19T17:15:27.799Z,36.61
2018-08-19T17:17:56.208Z,36.46
2018-08-19T17:20:25.426Z,37.59
2018-08-19T17:22:53.770Z,38.56
2018-08-19T17:25:22.098Z,38.08
2018-08-19T17:27:50.429Z,36.91
2018-08-19T17:30:19.141Z,37.37
2018-08-19T17:32:56.161Z,38.35
2018-08-19T17:35:25.505Z,38.33
2018-08-19T17:37:55.061Z,39.02
2018-08-19T17:40:23.633Z,38.19
2018-08-19T17:42:52.917Z,38.69
2018-08-19T17:45:22.273Z,39.23
2018-08-19T17:47:51.498Z,38.93
2018-08-19T17:50:24.873Z,40.11
2018-08-19T17:52:55.516Z,40.05
2018-08-19T17:55:24.449Z,40.69
2018-08-19T17:57:54.080Z,40.68
2018-08-19T18:00:23.017Z,41.17
2018-08-19T18:02:52.533Z,42.12
2018-08-19T18:05:21.041Z,42.05
2018-08-19T18:07:52.277Z,42.71
2018-08-19T18:10:20.755Z,43.97
2018-08-19T18:12:50.157Z,44.05
2018-08-19T18:15:18.654Z,44.34
2018-08-19T18:17:52.295Z,45.41
2018-08-19T18:20:24.634Z,45.62
2018-08-19T18:22:55.300Z,46.45
2018-08-19T18:25:23.937Z,46.18
2018-08-19T18:27:53.084Z,46.67
2018-08-19T18:30:27.482Z,45.82
2018-08-19T18:32:56.729Z,45.96
2018-08-19T18:35:25.134Z,47.02
2018-08-19T18:37:53.484Z,48.17
2018-08-19T18:40:32.240Z,48.55
2018-08-19T18:43:02.161Z,48.72
2018-08-19T18:45:30.644Z,49.59
2018-08-19T18:48:03.085Z,48.98
2018-08-19T18:50:31.622Z,49.80
2018-08-19T18:53:00.858Z,49.62
2018-08-19T18:55:30.195Z,50.68
2018-08-19T18:57:59.536Z,50.51
2018-08-19T19:00:28.590Z,51.79
2018-08-19T19:03:00.746Z,52.50
2018-08-19T19:05:42.046Z,52.78
2018-08-19T19:08:15.593Z,53.71
2018-08-19T19:10:54.424Z,53.80
2018-08-19T19:13:24.756Z,53.46
2018-08-19T19:15:53.100Z,53.20
2018-08-19T19:18:22.429Z,54.28
2018-08-19T19:20:55.575Z,54.63
2018-08-19T19:23:28.928Z,54.38
2018-08-19T19:25:57.458Z,53.73
2018-08-19T19:28:26.752Z,54.34
2018-08-19T19:31:01.245Z,54.44
2018-08-19T19:33:30.664Z,54.03
2018-08-19T19:36:05.734Z,55.10
2018-08-19T19:38:37.719Z,56.04
2018-08-19T19:41:09.761Z,57.32
2018-08-19T19:43:39.025Z,56.68
2018-08-19T19:46:08.236Z,58.94
2018-08-19T19:48:36.556Z,60.64
2018-08-19T19:51:05.113Z,59.79
2018-08-19T19:53:33.439Z,59.63
2018-08-19T19:56:10.857Z,59.40
2018-08-19T19:58:39.193Z,59.69
2018-08-19T20:01:07.600Z,59.86
2018-08-19T20:03:41.360Z,60.18
2018-08-19T20:06:09.683Z,60.34
2018-08-19T20:08:38.000Z,60.17
2018-08-19T20:11:13.608Z,60.58
2018-08-19T20:13:43.961Z,60.86
2018-08-19T20:16:14.452Z,61.03
2018-08-19T20:18:44.701Z,61.48
2018-08-19T20:21:22.545Z,62.61
2018-08-19T20:23:53.245Z,61.90
2018-08-19T20:26:22.153Z,62.82
2018-08-19T20:28:52.209Z,63.20
2018-08-19T20:31:20.593Z,67.58
2018-08-19T20:33:49.957Z,70.80
2018-08-19T20:36:18.543Z,73.61
2018-08-19T20:38:48.026Z,73.61
2018-08-19T20:41:16.544Z,73.60
2018-08-19T20:43:45.848Z,72.02
2018-08-19T20:46:15.109Z,72.77
2018-08-19T20:48:46.704Z,73.64
2018-08-19T20:51:15.450Z,73.98
2018-08-19T20:53:45.350Z,74.72
2018-08-19T20:56:14.745Z,74.67
2018-08-19T20:58:45.125Z,76.18
2018-08-19T21:01:20.894Z,77.38
2018-08-19T21:03:50.276Z,78.99
2018-08-19T21:06:18.700Z,80.39
2018-08-19T21:08:48.092Z,82.19
2018-08-19T21:11:16.411Z,84.07
2018-08-19T21:13:45.787Z,86.51
2018-08-19T21:16:15.865Z,87.53
2018-08-19T21:18:46.653Z,86.97
2018-08-19T21:21:16.047Z,88.05
2018-08-19T21:23:46.834Z,88.68
2018-08-19T21:26:16.489Z,90.17
2018-08-19T21:28:50.281Z,88.73
2018-08-19T21:31:19.724Z,88.19
2018-08-19T21:33:48.957Z,88.40
2018-08-19T21:36:18.092Z,88.98
2018-08-19T21:38:47.460Z,89.85
2018-08-19T21:41:16.837Z,90.63
2018-08-19T21:43:46.150Z,89.77
2018-08-19T21:46:16.904Z,90.48
2018-08-19T21:48:46.305Z,90.22
2018-08-19T21:51:17.038Z,90.29
2018-08-19T21:53:47.628Z,89.93
2018-08-19T21:56:16.952Z,90.18
2018-08-19T21:58:47.302Z,90.69
2018-08-19T22:01:26.747Z,91.61
2018-08-19T22:03:56.109Z,91.45
2018-08-19T22:06:24.584Z,91.76
2018-08-19T22:08:52.940Z,92.12
2018-08-19T22:11:21.285Z,91.43
2018-08-19T22:13:49.798Z,92.23
2018-08-19T22:16:18.219Z,91.64
2018-08-19T22:18:46.578Z,92.10
2018-08-19T22:21:17.174Z,94.45
2018-08-19T22:23:47.554Z,92.47
2018-08-19T22:26:17.371Z,93.26
2018-08-19T22:28:50.935Z,92.62
2018-08-19T22:31:27.738Z,91.83
2018-08-19T22:33:57.429Z,93.66
2018-08-19T22:36:25.802Z,94.11
2018-08-19T22:38:54.796Z,94.89
2018-08-19T22:41:25.391Z,95.24
2018-08-19T22:43:54.758Z,95.16
2018-08-19T22:46:23.225Z,94.70
2018-08-19T22:48:52.292Z,95.68
2018-08-19T22:51:20.809Z,95.58
2018-08-19T22:53:53.388Z,95.99
2018-08-19T22:56:22.408Z,95.13
2018-08-19T22:58:50.842Z,95.32
2018-08-19T23:01:19.233Z,93.99
2018-08-19T23:03:47.702Z,93.78
2018-08-19T23:06:17.181Z,94.39
2018-08-19T23:08:46.491Z,94.53
2018-08-19T23:11:15.752Z,93.96
2018-08-19T23:13:55.332Z,93.74
2018-08-19T23:16:24.671Z,94.48
2018-08-19T23:18:53.898Z,94.61
2018-08-19T23:21:23.273Z,94.80
2018-08-19T23:23:53.411Z,94.72
2018-08-19T23:26:22.671Z,95.19
2018-08-19T23:28:51.870Z,94.05
2018-08-19T23:31:21.361Z,92.29
2018-08-19T23:33:50.712Z,92.08
2018-08-19T23:36:19.940Z,90.92
2018-08-19T23:38:49.172Z,90.47
2018-08-19T23:41:18.537Z,90.79
2018-08-19T23:43:47.754Z,90.45
2018-08-19T23:48:43.992Z,89.59
2018-08-19T23:51:17.618Z,88.94
2018-08-19T23:53:46.996Z,88.49
2018-08-19T23:56:17.244Z,88.05
2018-08-19T23:58:48.844Z,87.43
